sensor_id;sensor_type;location;lat;lon;timestamp;temperature;humidity
44855;DHT22;30591;48.228;16.398;2023-07-31T00:00:29;16.90;99.90
44855;DHT22;30591;48.228;16.398;2023-07-31T00:02:56;16.90;99.90
44855;DHT22;30591;48.228;16.398;2023-07-31T00:05:25;16.80;99.90
44855;DHT22;30591;48.228;16.398;2023-07-31T00:07:53;16.70;99.90
44855;DHT22;30591;48.228;16.398;2023-07-31T00:10:21;16.60;99.90
44855;DHT22;30591;48.228;16.398;2023-07-31T00:12:49;16.60;99.90
44855;DHT22;30591;48.228;16.398;2023-07-31T00:15:16;16.50;99.90
44855;DHT22;30591;48.228;16.398;2023-07-31T00:17:43;16.50;99.90
44855;DHT22;30591;48.228;16.398;2023-07-31T00:20:11;16.50;99.90
44855;DHT22;30591;48.228;16.398;2023-07-31T00:22:38;16.50;99.90
44855;DHT22;30591;48.228;16.398;2023-07-31T00:25:06;16.60;99.90
44855;DHT22;30591;48.228;16.398;2023-07-31T00:27:34;16.60;99.90
44855;DHT22;30591;48.228;16.398;2023-07-31T00:30:01;16.70;99.90
44855;DHT22;30591;48.228;16.398;2023-07-31T00:32:29;16.70;99.90
44855;DHT22;30591;48.228;16.398;2023-07-31T00:34:56;16.70;99.90
44855;DHT22;30591;48.228;16.398;2023-07-31T00:37:24;16.60;99.90
44855;DHT22;30591;48.228;16.398;2023-07-31T00:39:51;16.50;99.90
44855;DHT22;30591;48.228;16.398;2023-07-31T00:42:18;16.50;99.90
44855;DHT22;30591;48.228;16.398;2023-07-31T00:44:48;16.60;99.90
44855;DHT22;30591;48.228;16.398;2023-07-31T00:47:15;16.60;99.90
44855;DHT22;30591;48.228;16.398;2023-07-31T00:49:43;16.60;99.90
44855;DHT22;30591;48.228;16.398;2023-07-31T00:52:11;16.50;99.90
44855;DHT22;30591;48.228;16.398;2023-07-31T00:54:38;16.40;99.90
44855;DHT22;30591;48.228;16.398;2023-07-31T00:57:06;16.30;99.90
44855;DHT22;30591;48.228;16.398;2023-07-31T00:59:35;16.40;99.90
44855;DHT22;30591;48.228;16.398;2023-07-31T01:02:03;16.30;99.90
44855;DHT22;30591;48.228;16.398;2023-07-31T01:04:31;16.30;99.90
44855;DHT22;30591;48.228;16.398;2023-07-31T01:09:45;16.20;99.90
44855;DHT22;30591;48.228;16.398;2023-07-31T01:12:17;16.20;99.90
44855;DHT22;30591;48.228;16.398;2023-07-31T01:15:13;16.20;99.90
44855;DHT22;30591;48.228;16.398;2023-07-31T01:17:39;16.20;99.90
44855;DHT22;30591;48.228;16.398;2023-07-31T01:20:24;16.20;99.90
44855;DHT22;30591;48.228;16.398;2023-07-31T01:25:57;16.30;99.90
44855;DHT22;30591;48.228;16.398;2023-07-31T01:28:56;16.30;99.90
44855;DHT22;30591;48.228;16.398;2023-07-31T01:31:29;16.30;99.90
44855;DHT22;30591;48.228;16.398;2023-07-31T01:34:00;16.20;99.90
44855;DHT22;30591;48.228;16.398;2023-07-31T01:36:30;16.10;99.90
44855;DHT22;30591;48.228;16.398;2023-07-31T01:39:00;16.10;99.90
44855;DHT22;30591;48.228;16.398;2023-07-31T01:41:28;16.10;99.90
44855;DHT22;30591;48.228;16.398;2023-07-31T01:43:56;16.20;99.90
44855;DHT22;30591;48.228;16.398;2023-07-31T01:46:23;16.20;99.90
44855;DHT22;30591;48.228;16.398;2023-07-31T01:48:51;16.30;99.90
44855;DHT22;30591;48.228;16.398;2023-07-31T01:51:18;16.30;99.90
44855;DHT22;30591;48.228;16.398;2023-07-31T01:53:46;16.30;99.90
44855;DHT22;30591;48.228;16.398;2023-07-31T01:56:13;16.10;99.90
44855;DHT22;30591;48.228;16.398;2023-07-31T01:58:41;16.20;99.90
44855;DHT22;30591;48.228;16.398;2023-07-31T02:01:08;16.10;99.90
44855;DHT22;30591;48.228;16.398;2023-07-31T02:03:36;16.10;99.90
44855;DHT22;30591;48.228;16.398;2023-07-31T02:06:03;16.10;99.90
44855;DHT22;30591;48.228;16.398;2023-07-31T02:08:30;16.00;99.90
44855;DHT22;30591;48.228;16.398;2023-07-31T02:10:58;16.10;99.90
44855;DHT22;30591;48.228;16.398;2023-07-31T02:13:25;16.00;99.90
44855;DHT22;30591;48.228;16.398;2023-07-31T02:15:53;15.90;99.90
44855;DHT22;30591;48.228;16.398;2023-07-31T02:18:21;15.90;99.90
44855;DHT22;30591;48.228;16.398;2023-07-31T02:20:50;16.00;99.90
44855;DHT22;30591;48.228;16.398;2023-07-31T02:23:19;16.00;99.90
44855;DHT22;30591;48.228;16.398;2023-07-31T02:25:47;16.00;99.90
44855;DHT22;30591;48.228;16.398;2023-07-31T02:28:14;16.00;99.90
44855;DHT22;30591;48.228;16.398;2023-07-31T02:30:45;15.90;99.90
44855;DHT22;30591;48.228;16.398;2023-07-31T02:33:14;15.80;99.90
44855;DHT22;30591;48.228;16.398;2023-07-31T02:35:42;15.80;99.90
44855;DHT22;30591;48.228;16.398;2023-07-31T02:38:10;15.80;99.90
44855;DHT22;30591;48.228;16.398;2023-07-31T02:40:37;15.80;99.90
44855;DHT22;30591;48.228;16.398;2023-07-31T02:43:06;15.80;99.90
44855;DHT22;30591;48.228;16.398;2023-07-31T02:45:33;15.80;99.90
44855;DHT22;30591;48.228;16.398;2023-07-31T02:48:01;15.70;99.90
44855;DHT22;30591;48.228;16.398;2023-07-31T02:50:29;15.70;99.90
44855;DHT22;30591;48.228;16.398;2023-07-31T02:52:56;15.70;99.90
44855;DHT22;30591;48.228;16.398;2023-07-31T02:55:24;15.60;99.90
44855;DHT22;30591;48.228;16.398;2023-07-31T02:57:51;15.60;99.90
44855;DHT22;30591;48.228;16.398;2023-07-31T03:00:20;15.60;99.90
44855;DHT22;30591;48.228;16.398;2023-07-31T03:02:48;15.60;99.90
44855;DHT22;30591;48.228;16.398;2023-07-31T03:05:15;15.50;99.90
44855;DHT22;30591;48.228;16.398;2023-07-31T03:07:43;15.50;99.90
44855;DHT22;30591;48.228;16.398;2023-07-31T03:10:10;15.50;99.90
44855;DHT22;30591;48.228;16.398;2023-07-31T03:12:37;15.50;99.90
44855;DHT22;30591;48.228;16.398;2023-07-31T03:15:05;15.40;99.90
44855;DHT22;30591;48.228;16.398;2023-07-31T03:17:33;15.30;99.90
44855;DHT22;30591;48.228;16.398;2023-07-31T03:20:00;15.20;99.90
44855;DHT22;30591;48.228;16.398;2023-07-31T03:22:27;15.20;99.90
44855;DHT22;30591;48.228;16.398;2023-07-31T03:24:55;15.20;99.90
44855;DHT22;30591;48.228;16.398;2023-07-31T03:27:23;15.10;99.90
44855;DHT22;30591;48.228;16.398;2023-07-31T03:29:51;15.00;99.90
44855;DHT22;30591;48.228;16.398;2023-07-31T03:32:19;15.00;99.90
44855;DHT22;30591;48.228;16.398;2023-07-31T03:34:46;15.00;99.90
44855;DHT22;30591;48.228;16.398;2023-07-31T03:37:13;15.10;99.90
44855;DHT22;30591;48.228;16.398;2023-07-31T03:39:41;15.10;99.90
44855;DHT22;30591;48.228;16.398;2023-07-31T03:42:08;15.10;99.90
44855;DHT22;30591;48.228;16.398;2023-07-31T03:44:35;15.20;99.90
44855;DHT22;30591;48.228;16.398;2023-07-31T03:47:05;15.30;99.90
44855;DHT22;30591;48.228;16.398;2023-07-31T03:49:32;15.30;99.90
44855;DHT22;30591;48.228;16.398;2023-07-31T03:51:59;15.30;99.90
44855;DHT22;30591;48.228;16.398;2023-07-31T03:54:27;15.40;99.90
44855;DHT22;30591;48.228;16.398;2023-07-31T03:56:54;15.40;99.90
44855;DHT22;30591;48.228;16.398;2023-07-31T03:59:22;15.30;99.90
44855;DHT22;30591;48.228;16.398;2023-07-31T04:01:49;15.40;99.90
44855;DHT22;30591;48.228;16.398;2023-07-31T04:04:16;15.30;99.90
44855;DHT22;30591;48.228;16.398;2023-07-31T04:06:44;15.40;99.90
44855;DHT22;30591;48.228;16.398;2023-07-31T04:09:11;15.50;99.90
44855;DHT22;30591;48.228;16.398;2023-07-31T04:11:39;15.40;99.90
44855;DHT22;30591;48.228;16.398;2023-07-31T04:14:06;15.50;99.90
44855;DHT22;30591;48.228;16.398;2023-07-31T04:16:33;15.50;99.90
44855;DHT22;30591;48.228;16.398;2023-07-31T04:19:00;15.70;99.90
44855;DHT22;30591;48.228;16.398;2023-07-31T04:21:28;15.70;99.90
44855;DHT22;30591;48.228;16.398;2023-07-31T04:23:55;15.80;99.90
44855;DHT22;30591;48.228;16.398;2023-07-31T04:26:23;15.90;99.90
44855;DHT22;30591;48.228;16.398;2023-07-31T04:28:50;15.90;99.90
44855;DHT22;30591;48.228;16.398;2023-07-31T04:31:17;16.00;99.90
44855;DHT22;30591;48.228;16.398;2023-07-31T04:33:45;16.00;99.90
44855;DHT22;30591;48.228;16.398;2023-07-31T04:36:12;16.10;99.90
44855;DHT22;30591;48.228;16.398;2023-07-31T04:38:39;16.10;99.90
44855;DHT22;30591;48.228;16.398;2023-07-31T04:41:08;16.20;99.90
44855;DHT22;30591;48.228;16.398;2023-07-31T04:43:35;16.30;99.90
44855;DHT22;30591;48.228;16.398;2023-07-31T04:46:06;16.50;99.90
44855;DHT22;30591;48.228;16.398;2023-07-31T04:48:33;16.70;99.90
44855;DHT22;30591;48.228;16.398;2023-07-31T04:51:01;16.80;99.90
44855;DHT22;30591;48.228;16.398;2023-07-31T04:53:28;16.90;99.90
44855;DHT22;30591;48.228;16.398;2023-07-31T04:55:55;16.90;99.90
44855;DHT22;30591;48.228;16.398;2023-07-31T04:58:23;17.00;99.90
44855;DHT22;30591;48.228;16.398;2023-07-31T05:00:50;17.10;99.90
44855;DHT22;30591;48.228;16.398;2023-07-31T05:03:18;17.20;99.90
44855;DHT22;30591;48.228;16.398;2023-07-31T05:05:45;17.30;99.90
44855;DHT22;30591;48.228;16.398;2023-07-31T05:08:13;17.40;99.90
44855;DHT22;30591;48.228;16.398;2023-07-31T05:10:40;17.50;99.90
44855;DHT22;30591;48.228;16.398;2023-07-31T05:13:07;17.60;99.90
44855;DHT22;30591;48.228;16.398;2023-07-31T05:15:35;17.60;99.90
44855;DHT22;30591;48.228;16.398;2023-07-31T05:18:02;17.70;99.90
44855;DHT22;30591;48.228;16.398;2023-07-31T05:20:29;17.60;99.90
44855;DHT22;30591;48.228;16.398;2023-07-31T05:22:57;17.70;99.90
44855;DHT22;30591;48.228;16.398;2023-07-31T05:25:24;17.80;99.90
44855;DHT22;30591;48.228;16.398;2023-07-31T05:27:51;17.90;99.90
44855;DHT22;30591;48.228;16.398;2023-07-31T05:30:19;18.00;99.90
44855;DHT22;30591;48.228;16.398;2023-07-31T05:32:47;18.00;99.90
44855;DHT22;30591;48.228;16.398;2023-07-31T05:35:14;18.20;99.90
44855;DHT22;30591;48.228;16.398;2023-07-31T05:37:42;18.20;99.90
44855;DHT22;30591;48.228;16.398;2023-07-31T05:40:09;18.40;99.90
44855;DHT22;30591;48.228;16.398;2023-07-31T05:42:37;18.50;99.90
44855;DHT22;30591;48.228;16.398;2023-07-31T05:45:07;18.80;99.90
44855;DHT22;30591;48.228;16.398;2023-07-31T05:47:34;18.80;99.90
44855;DHT22;30591;48.228;16.398;2023-07-31T05:50:02;19.10;99.90
44855;DHT22;30591;48.228;16.398;2023-07-31T05:52:30;19.10;99.90
44855;DHT22;30591;48.228;16.398;2023-07-31T05:54:58;19.30;99.90
44855;DHT22;30591;48.228;16.398;2023-07-31T05:57:25;19.50;99.90
44855;DHT22;30591;48.228;16.398;2023-07-31T05:59:53;19.50;99.90
44855;DHT22;30591;48.228;16.398;2023-07-31T06:02:20;19.80;99.90
44855;DHT22;30591;48.228;16.398;2023-07-31T06:04:48;20.10;99.90
44855;DHT22;30591;48.228;16.398;2023-07-31T06:07:16;20.50;99.90
44855;DHT22;30591;48.228;16.398;2023-07-31T06:09:44;20.50;99.90
44855;DHT22;30591;48.228;16.398;2023-07-31T06:12:11;20.50;99.90
44855;DHT22;30591;48.228;16.398;2023-07-31T06:14:39;20.50;99.90
44855;DHT22;30591;48.228;16.398;2023-07-31T06:17:07;20.50;99.90
44855;DHT22;30591;48.228;16.398;2023-07-31T06:19:34;20.50;99.90
44855;DHT22;30591;48.228;16.398;2023-07-31T06:22:02;20.70;99.90
44855;DHT22;30591;48.228;16.398;2023-07-31T06:24:29;20.50;99.90
44855;DHT22;30591;48.228;16.398;2023-07-31T06:26:56;20.50;99.90
44855;DHT22;30591;48.228;16.398;2023-07-31T06:29:25;20.50;99.90
44855;DHT22;30591;48.228;16.398;2023-07-31T06:31:52;20.50;99.90
44855;DHT22;30591;48.228;16.398;2023-07-31T06:34:19;20.80;99.90
44855;DHT22;30591;48.228;16.398;2023-07-31T06:36:47;20.90;99.90
44855;DHT22;30591;48.228;16.398;2023-07-31T06:39:14;20.90;99.90
44855;DHT22;30591;48.228;16.398;2023-07-31T06:41:42;20.80;99.90
44855;DHT22;30591;48.228;16.398;2023-07-31T06:44:10;20.80;99.90
44855;DHT22;30591;48.228;16.398;2023-07-31T06:46:38;20.70;99.90
44855;DHT22;30591;48.228;16.398;2023-07-31T06:49:06;20.60;99.90
44855;DHT22;30591;48.228;16.398;2023-07-31T06:51:33;20.70;99.90
44855;DHT22;30591;48.228;16.398;2023-07-31T06:54:03;20.60;99.90
44855;DHT22;30591;48.228;16.398;2023-07-31T06:56:31;20.80;99.90
44855;DHT22;30591;48.228;16.398;2023-07-31T06:58:59;20.90;99.90
44855;DHT22;30591;48.228;16.398;2023-07-31T07:01:26;21.10;99.90
44855;DHT22;30591;48.228;16.398;2023-07-31T07:03:55;21.30;99.90
44855;DHT22;30591;48.228;16.398;2023-07-31T07:06:22;21.30;99.90
44855;DHT22;30591;48.228;16.398;2023-07-31T07:08:50;21.60;99.90
44855;DHT22;30591;48.228;16.398;2023-07-31T07:11:17;21.80;99.90
44855;DHT22;30591;48.228;16.398;2023-07-31T07:13:44;21.90;99.90
44855;DHT22;30591;48.228;16.398;2023-07-31T07:16:11;21.90;99.90
44855;DHT22;30591;48.228;16.398;2023-07-31T07:18:39;22.00;99.90
44855;DHT22;30591;48.228;16.398;2023-07-31T07:21:20;22.20;99.90
44855;DHT22;30591;48.228;16.398;2023-07-31T07:23:47;22.10;99.90
44855;DHT22;30591;48.228;16.398;2023-07-31T07:26:14;22.00;99.90
44855;DHT22;30591;48.228;16.398;2023-07-31T07:28:42;22.20;99.90
44855;DHT22;30591;48.228;16.398;2023-07-31T07:31:09;22.10;99.90
44855;DHT22;30591;48.228;16.398;2023-07-31T07:33:36;22.30;99.90
44855;DHT22;30591;48.228;16.398;2023-07-31T07:36:04;22.40;99.90
44855;DHT22;30591;48.228;16.398;2023-07-31T07:38:33;22.40;99.90
44855;DHT22;30591;48.228;16.398;2023-07-31T07:41:00;22.50;99.90
44855;DHT22;30591;48.228;16.398;2023-07-31T07:43:27;22.70;99.90
44855;DHT22;30591;48.228;16.398;2023-07-31T07:45:55;22.80;99.90
44855;DHT22;30591;48.228;16.398;2023-07-31T07:48:22;22.50;99.90
44855;DHT22;30591;48.228;16.398;2023-07-31T07:50:50;22.10;99.90
44855;DHT22;30591;48.228;16.398;2023-07-31T07:53:18;21.90;99.90
44855;DHT22;30591;48.228;16.398;2023-07-31T07:55:45;22.00;99.90
44855;DHT22;30591;48.228;16.398;2023-07-31T07:58:13;21.90;99.90
44855;DHT22;30591;48.228;16.398;2023-07-31T08:00:40;21.90;99.90
44855;DHT22;30591;48.228;16.398;2023-07-31T08:03:07;22.20;99.90
44855;DHT22;30591;48.228;16.398;2023-07-31T08:05:35;22.20;99.90
44855;DHT22;30591;48.228;16.398;2023-07-31T08:08:02;22.30;99.20
44855;DHT22;30591;48.228;16.398;2023-07-31T08:10:29;22.90;99.30
44855;DHT22;30591;48.228;16.398;2023-07-31T08:12:56;23.30;98.50
44855;DHT22;30591;48.228;16.398;2023-07-31T08:15:24;23.70;98.10
44855;DHT22;30591;48.228;16.398;2023-07-31T08:17:51;23.50;96.20
44855;DHT22;30591;48.228;16.398;2023-07-31T08:20:18;23.40;97.10
44855;DHT22;30591;48.228;16.398;2023-07-31T08:22:46;23.10;97.30
44855;DHT22;30591;48.228;16.398;2023-07-31T08:25:13;22.90;95.10
44855;DHT22;30591;48.228;16.398;2023-07-31T08:27:44;22.20;94.40
44855;DHT22;30591;48.228;16.398;2023-07-31T08:30:12;22.40;93.80
44855;DHT22;30591;48.228;16.398;2023-07-31T08:32:39;22.70;92.60
44855;DHT22;30591;48.228;16.398;2023-07-31T08:35:07;23.00;92.20
44855;DHT22;30591;48.228;16.398;2023-07-31T08:37:34;22.80;92.30
44855;DHT22;30591;48.228;16.398;2023-07-31T08:40:03;22.90;92.20
44855;DHT22;30591;48.228;16.398;2023-07-31T08:42:30;23.20;91.10
44855;DHT22;30591;48.228;16.398;2023-07-31T08:45:00;23.40;92.10
44855;DHT22;30591;48.228;16.398;2023-07-31T08:47:28;23.50;91.40
44855;DHT22;30591;48.228;16.398;2023-07-31T08:49:57;23.20;90.40
44855;DHT22;30591;48.228;16.398;2023-07-31T08:52:25;22.90;91.40
44855;DHT22;30591;48.228;16.398;2023-07-31T08:54:52;22.90;90.60
44855;DHT22;30591;48.228;16.398;2023-07-31T08:57:20;22.70;90.00
44855;DHT22;30591;48.228;16.398;2023-07-31T08:59:47;22.70;90.40
44855;DHT22;30591;48.228;16.398;2023-07-31T09:02:15;22.50;90.70
44855;DHT22;30591;48.228;16.398;2023-07-31T09:04:43;22.80;90.00
44855;DHT22;30591;48.228;16.398;2023-07-31T09:07:11;23.20;87.00
44855;DHT22;30591;48.228;16.398;2023-07-31T09:09:40;23.10;88.00
44855;DHT22;30591;48.228;16.398;2023-07-31T09:12:07;22.90;90.20
44855;DHT22;30591;48.228;16.398;2023-07-31T09:14:35;23.10;89.00
44855;DHT22;30591;48.228;16.398;2023-07-31T09:17:03;24.00;90.20
44855;DHT22;30591;48.228;16.398;2023-07-31T09:19:35;24.50;85.90
44855;DHT22;30591;48.228;16.398;2023-07-31T09:22:06;24.40;83.60
44855;DHT22;30591;48.228;16.398;2023-07-31T09:24:34;24.00;84.80
44855;DHT22;30591;48.228;16.398;2023-07-31T09:27:02;23.70;85.00
44855;DHT22;30591;48.228;16.398;2023-07-31T09:29:30;23.60;88.00
44855;DHT22;30591;48.228;16.398;2023-07-31T09:31:57;24.20;90.50
44855;DHT22;30591;48.228;16.398;2023-07-31T09:34:30;24.80;90.40
44855;DHT22;30591;48.228;16.398;2023-07-31T09:37:05;25.00;92.10
44855;DHT22;30591;48.228;16.398;2023-07-31T09:39:33;25.00;89.70
44855;DHT22;30591;48.228;16.398;2023-07-31T09:42:12;25.00;86.50
44855;DHT22;30591;48.228;16.398;2023-07-31T09:44:42;25.10;89.00
44855;DHT22;30591;48.228;16.398;2023-07-31T09:47:25;25.40;86.40
44855;DHT22;30591;48.228;16.398;2023-07-31T09:49:53;25.60;88.50
44855;DHT22;30591;48.228;16.398;2023-07-31T09:52:21;25.60;85.20
44855;DHT22;30591;48.228;16.398;2023-07-31T09:54:49;25.00;88.90
44855;DHT22;30591;48.228;16.398;2023-07-31T09:57:17;24.80;86.80
44855;DHT22;30591;48.228;16.398;2023-07-31T09:59:47;24.20;89.10
44855;DHT22;30591;48.228;16.398;2023-07-31T10:02:21;24.00;88.50
44855;DHT22;30591;48.228;16.398;2023-07-31T10:04:50;24.40;87.20
44855;DHT22;30591;48.228;16.398;2023-07-31T10:07:19;24.40;87.60
44855;DHT22;30591;48.228;16.398;2023-07-31T10:09:48;24.30;87.80
44855;DHT22;30591;48.228;16.398;2023-07-31T10:12:18;24.40;90.00
44855;DHT22;30591;48.228;16.398;2023-07-31T10:14:46;24.40;90.10
44855;DHT22;30591;48.228;16.398;2023-07-31T10:17:14;24.20;87.20
44855;DHT22;30591;48.228;16.398;2023-07-31T10:19:42;24.30;87.50
44855;DHT22;30591;48.228;16.398;2023-07-31T10:22:11;24.60;87.50
44855;DHT22;30591;48.228;16.398;2023-07-31T10:24:40;25.50;87.50
44855;DHT22;30591;48.228;16.398;2023-07-31T10:27:10;26.00;86.00
44855;DHT22;30591;48.228;16.398;2023-07-31T10:29:39;25.90;83.10
44855;DHT22;30591;48.228;16.398;2023-07-31T10:32:07;26.00;84.60
44855;DHT22;30591;48.228;16.398;2023-07-31T10:34:39;25.80;84.00
44855;DHT22;30591;48.228;16.398;2023-07-31T10:37:26;26.00;90.40
44855;DHT22;30591;48.228;16.398;2023-07-31T10:40:05;25.80;86.60
44855;DHT22;30591;48.228;16.398;2023-07-31T10:42:35;26.20;83.10
44855;DHT22;30591;48.228;16.398;2023-07-31T10:45:06;26.10;83.90
44855;DHT22;30591;48.228;16.398;2023-07-31T10:47:39;26.10;83.70
44855;DHT22;30591;48.228;16.398;2023-07-31T10:50:19;26.30;85.50
44855;DHT22;30591;48.228;16.398;2023-07-31T10:52:51;26.10;83.70
44855;DHT22;30591;48.228;16.398;2023-07-31T10:55:36;25.90;84.50
44855;DHT22;30591;48.228;16.398;2023-07-31T10:58:08;25.50;84.90
44855;DHT22;30591;48.228;16.398;2023-07-31T11:00:43;25.30;81.70
44855;DHT22;30591;48.228;16.398;2023-07-31T11:03:15;26.00;82.40
44855;DHT22;30591;48.228;16.398;2023-07-31T11:08:28;26.80;80.80
44855;DHT22;30591;48.228;16.398;2023-07-31T11:11:10;27.20;82.20
44855;DHT22;30591;48.228;16.398;2023-07-31T11:16:18;27.50;79.10
44855;DHT22;30591;48.228;16.398;2023-07-31T11:18:47;27.50;77.70
44855;DHT22;30591;48.228;16.398;2023-07-31T11:21:18;27.40;78.90
44855;DHT22;30591;48.228;16.398;2023-07-31T11:23:47;27.30;82.20
44855;DHT22;30591;48.228;16.398;2023-07-31T11:26:16;27.30;78.00
44855;DHT22;30591;48.228;16.398;2023-07-31T11:28:47;27.60;76.40
44855;DHT22;30591;48.228;16.398;2023-07-31T11:31:15;27.90;80.60
44855;DHT22;30591;48.228;16.398;2023-07-31T11:33:43;28.40;82.90
44855;DHT22;30591;48.228;16.398;2023-07-31T11:36:20;27.80;76.40
44855;DHT22;30591;48.228;16.398;2023-07-31T11:38:48;27.80;78.40
44855;DHT22;30591;48.228;16.398;2023-07-31T11:41:16;28.00;79.50
44855;DHT22;30591;48.228;16.398;2023-07-31T11:43:46;28.10;76.10
44855;DHT22;30591;48.228;16.398;2023-07-31T11:46:15;28.30;79.10
44855;DHT22;30591;48.228;16.398;2023-07-31T11:48:43;27.90;75.20
44855;DHT22;30591;48.228;16.398;2023-07-31T11:51:12;28.20;78.20
44855;DHT22;30591;48.228;16.398;2023-07-31T11:53:47;28.30;76.90
44855;DHT22;30591;48.228;16.398;2023-07-31T11:56:17;28.70;76.10
44855;DHT22;30591;48.228;16.398;2023-07-31T11:58:56;28.50;73.60
44855;DHT22;30591;48.228;16.398;2023-07-31T12:01:26;28.50;74.30
44855;DHT22;30591;48.228;16.398;2023-07-31T12:03:55;28.70;74.30
44855;DHT22;30591;48.228;16.398;2023-07-31T12:06:33;28.70;79.70
44855;DHT22;30591;48.228;16.398;2023-07-31T12:09:05;28.80;71.40
44855;DHT22;30591;48.228;16.398;2023-07-31T12:11:46;29.30;73.10
44855;DHT22;30591;48.228;16.398;2023-07-31T12:14:27;29.10;71.50
44855;DHT22;30591;48.228;16.398;2023-07-31T12:17:04;29.30;73.10
44855;DHT22;30591;48.228;16.398;2023-07-31T12:19:32;29.20;74.40
44855;DHT22;30591;48.228;16.398;2023-07-31T12:22:00;29.10;73.30
44855;DHT22;30591;48.228;16.398;2023-07-31T12:24:27;29.80;71.90
44855;DHT22;30591;48.228;16.398;2023-07-31T12:26:55;30.00;70.00
44855;DHT22;30591;48.228;16.398;2023-07-31T12:29:22;31.40;69.10
44855;DHT22;30591;48.228;16.398;2023-07-31T12:31:50;32.80;62.40
44855;DHT22;30591;48.228;16.398;2023-07-31T12:34:18;32.90;64.70
44855;DHT22;30591;48.228;16.398;2023-07-31T12:36:48;31.30;62.80
44855;DHT22;30591;48.228;16.398;2023-07-31T12:39:18;30.00;71.90
44855;DHT22;30591;48.228;16.398;2023-07-31T12:41:45;31.50;63.90
44855;DHT22;30591;48.228;16.398;2023-07-31T12:44:12;32.80;64.70
44855;DHT22;30591;48.228;16.398;2023-07-31T12:46:40;33.50;53.70
44855;DHT22;30591;48.228;16.398;2023-07-31T12:49:08;33.90;55.00
44855;DHT22;30591;48.228;16.398;2023-07-31T12:51:36;34.60;55.70
44855;DHT22;30591;48.228;16.398;2023-07-31T12:54:03;34.70;55.60
44855;DHT22;30591;48.228;16.398;2023-07-31T12:56:31;35.20;54.70
44855;DHT22;30591;48.228;16.398;2023-07-31T12:58:59;35.00;51.70
44855;DHT22;30591;48.228;16.398;2023-07-31T13:01:26;35.90;53.40
44855;DHT22;30591;48.228;16.398;2023-07-31T13:03:54;36.80;51.40
44855;DHT22;30591;48.228;16.398;2023-07-31T13:06:22;36.10;51.90
44855;DHT22;30591;48.228;16.398;2023-07-31T13:08:49;34.30;54.90
44855;DHT22;30591;48.228;16.398;2023-07-31T13:11:16;33.60;54.60
44855;DHT22;30591;48.228;16.398;2023-07-31T13:13:44;32.90;54.70
44855;DHT22;30591;48.228;16.398;2023-07-31T13:16:11;31.50;57.30
44855;DHT22;30591;48.228;16.398;2023-07-31T13:18:38;30.50;56.50
44855;DHT22;30591;48.228;16.398;2023-07-31T13:21:06;30.70;58.50
44855;DHT22;30591;48.228;16.398;2023-07-31T13:23:33;31.10;57.40
44855;DHT22;30591;48.228;16.398;2023-07-31T13:26:00;31.60;57.40
44855;DHT22;30591;48.228;16.398;2023-07-31T13:28:28;31.10;57.70
44855;DHT22;30591;48.228;16.398;2023-07-31T13:30:56;29.70;55.90
44855;DHT22;30591;48.228;16.398;2023-07-31T13:33:23;29.60;55.30
44855;DHT22;30591;48.228;16.398;2023-07-31T13:36:03;30.00;55.70
44855;DHT22;30591;48.228;16.398;2023-07-31T13:38:30;31.30;57.60
44855;DHT22;30591;48.228;16.398;2023-07-31T13:40:57;32.80;53.70
44855;DHT22;30591;48.228;16.398;2023-07-31T13:43:25;32.50;52.80
44855;DHT22;30591;48.228;16.398;2023-07-31T13:45:53;32.20;55.60
44855;DHT22;30591;48.228;16.398;2023-07-31T13:48:20;31.90;58.10
44855;DHT22;30591;48.228;16.398;2023-07-31T13:50:48;31.70;59.00
44855;DHT22;30591;48.228;16.398;2023-07-31T13:53:15;30.90;56.10
44855;DHT22;30591;48.228;16.398;2023-07-31T13:55:42;31.90;54.50
44855;DHT22;30591;48.228;16.398;2023-07-31T13:58:12;30.30;58.60
44855;DHT22;30591;48.228;16.398;2023-07-31T14:00:40;30.30;59.50
44855;DHT22;30591;48.228;16.398;2023-07-31T14:03:07;32.10;55.70
44855;DHT22;30591;48.228;16.398;2023-07-31T14:05:35;32.30;57.40
44855;DHT22;30591;48.228;16.398;2023-07-31T14:08:02;33.80;57.40
44855;DHT22;30591;48.228;16.398;2023-07-31T14:10:30;33.60;55.20
44855;DHT22;30591;48.228;16.398;2023-07-31T14:12:57;32.40;54.80
44855;DHT22;30591;48.228;16.398;2023-07-31T14:15:24;31.00;55.90
44855;DHT22;30591;48.228;16.398;2023-07-31T14:17:52;30.30;60.40
44855;DHT22;30591;48.228;16.398;2023-07-31T14:20:20;29.30;59.50
44855;DHT22;30591;48.228;16.398;2023-07-31T14:22:48;29.20;59.90
44855;DHT22;30591;48.228;16.398;2023-07-31T14:25:15;29.10;61.40
44855;DHT22;30591;48.228;16.398;2023-07-31T14:27:43;28.90;60.80
44855;DHT22;30591;48.228;16.398;2023-07-31T14:30:10;28.80;60.90
44855;DHT22;30591;48.228;16.398;2023-07-31T14:32:37;28.30;61.80
44855;DHT22;30591;48.228;16.398;2023-07-31T14:35:05;27.50;64.20
44855;DHT22;30591;48.228;16.398;2023-07-31T14:37:44;27.30;65.90
44855;DHT22;30591;48.228;16.398;2023-07-31T14:40:12;27.20;66.80
44855;DHT22;30591;48.228;16.398;2023-07-31T14:42:40;27.40;68.30
44855;DHT22;30591;48.228;16.398;2023-07-31T14:45:08;27.30;66.90
44855;DHT22;30591;48.228;16.398;2023-07-31T14:47:36;27.40;65.90
44855;DHT22;30591;48.228;16.398;2023-07-31T14:50:04;28.30;64.30
44855;DHT22;30591;48.228;16.398;2023-07-31T14:52:32;30.20;65.00
44855;DHT22;30591;48.228;16.398;2023-07-31T14:54:59;30.60;59.20
44855;DHT22;30591;48.228;16.398;2023-07-31T14:57:27;32.20;58.90
44855;DHT22;30591;48.228;16.398;2023-07-31T14:59:54;33.80;55.60
44855;DHT22;30591;48.228;16.398;2023-07-31T15:02:22;34.80;56.10
44855;DHT22;30591;48.228;16.398;2023-07-31T15:04:49;36.00;51.80
44855;DHT22;30591;48.228;16.398;2023-07-31T15:07:16;37.20;51.70
44855;DHT22;30591;48.228;16.398;2023-07-31T15:09:44;38.40;46.90
44855;DHT22;30591;48.228;16.398;2023-07-31T15:12:11;38.30;47.10
44855;DHT22;30591;48.228;16.398;2023-07-31T15:14:39;38.30;47.60
44855;DHT22;30591;48.228;16.398;2023-07-31T15:17:06;38.50;46.70
44855;DHT22;30591;48.228;16.398;2023-07-31T15:19:33;38.00;46.70
44855;DHT22;30591;48.228;16.398;2023-07-31T15:22:04;38.40;46.80
44855;DHT22;30591;48.228;16.398;2023-07-31T15:24:32;37.70;46.00
44855;DHT22;30591;48.228;16.398;2023-07-31T15:26:59;37.70;46.10
44855;DHT22;30591;48.228;16.398;2023-07-31T15:29:29;37.70;45.60
44855;DHT22;30591;48.228;16.398;2023-07-31T15:31:57;38.00;45.90
44855;DHT22;30591;48.228;16.398;2023-07-31T15:34:26;38.20;46.10